sensor_id;sensor_type;location;lat;lon;timestamp;temperature;humidity
16893;DHT22;8563;52.242;9.098;2023-04-23T00:00:31;15.50;99.90
16893;DHT22;8563;52.242;9.098;2023-04-23T00:03:06;15.30;99.90
16893;DHT22;8563;52.242;9.098;2023-04-23T00:05:40;15.10;99.90
16893;DHT22;8563;52.242;9.098;2023-04-23T00:08:15;15.00;99.90
16893;DHT22;8563;52.242;9.098;2023-04-23T00:10:49;14.80;99.90
16893;DHT22;8563;52.242;9.098;2023-04-23T00:13:23;14.60;99.90
16893;DHT22;8563;52.242;9.098;2023-04-23T00:15:56;14.40;99.90
16893;DHT22;8563;52.242;9.098;2023-04-23T00:18:28;14.40;99.90
16893;DHT22;8563;52.242;9.098;2023-04-23T00:21:01;14.50;99.90
16893;DHT22;8563;52.242;9.098;2023-04-23T00:23:33;14.50;99.90
16893;DHT22;8563;52.242;9.098;2023-04-23T00:26:05;14.50;99.90
16893;DHT22;8563;52.242;9.098;2023-04-23T00:28:39;14.50;99.90
16893;DHT22;8563;52.242;9.098;2023-04-23T00:31:11;14.50;99.90
16893;DHT22;8563;52.242;9.098;2023-04-23T00:33:44;14.50;99.90
16893;DHT22;8563;52.242;9.098;2023-04-23T00:36:16;14.60;99.90
16893;DHT22;8563;52.242;9.098;2023-04-23T00:38:48;14.60;99.90
16893;DHT22;8563;52.242;9.098;2023-04-23T00:41:20;14.70;99.90
16893;DHT22;8563;52.242;9.098;2023-04-23T00:43:55;14.70;99.90
16893;DHT22;8563;52.242;9.098;2023-04-23T00:46:28;14.70;99.90
16893;DHT22;8563;52.242;9.098;2023-04-23T00:49:00;14.60;99.90
16893;DHT22;8563;52.242;9.098;2023-04-23T00:51:33;14.60;99.90
16893;DHT22;8563;52.242;9.098;2023-04-23T00:54:05;14.50;99.90
16893;DHT22;8563;52.242;9.098;2023-04-23T00:56:37;14.50;99.90
16893;DHT22;8563;52.242;9.098;2023-04-23T00:59:11;14.50;99.90
16893;DHT22;8563;52.242;9.098;2023-04-23T01:01:43;14.50;99.90
16893;DHT22;8563;52.242;9.098;2023-04-23T01:04:16;14.40;99.90
16893;DHT22;8563;52.242;9.098;2023-04-23T01:06:49;14.40;99.90
16893;DHT22;8563;52.242;9.098;2023-04-23T01:09:24;14.40;99.90
16893;DHT22;8563;52.242;9.098;2023-04-23T01:11:57;14.40;99.90
16893;DHT22;8563;52.242;9.098;2023-04-23T01:14:33;14.40;99.90
16893;DHT22;8563;52.242;9.098;2023-04-23T01:17:07;14.40;99.90
16893;DHT22;8563;52.242;9.098;2023-04-23T01:19:41;14.40;99.90
16893;DHT22;8563;52.242;9.098;2023-04-23T01:22:15;14.30;99.90
16893;DHT22;8563;52.242;9.098;2023-04-23T01:24:48;14.30;99.90
16893;DHT22;8563;52.242;9.098;2023-04-23T01:27:20;14.20;99.90
16893;DHT22;8563;52.242;9.098;2023-04-23T01:29:54;14.10;99.90
16893;DHT22;8563;52.242;9.098;2023-04-23T01:32:27;14.10;99.90
16893;DHT22;8563;52.242;9.098;2023-04-23T01:34:59;14.10;99.90
16893;DHT22;8563;52.242;9.098;2023-04-23T01:37:34;14.00;99.90
16893;DHT22;8563;52.242;9.098;2023-04-23T01:40:09;14.10;99.90
16893;DHT22;8563;52.242;9.098;2023-04-23T01:42:41;14.10;99.90
16893;DHT22;8563;52.242;9.098;2023-04-23T01:45:13;14.10;99.90
16893;DHT22;8563;52.242;9.098;2023-04-23T01:47:47;14.00;99.90
16893;DHT22;8563;52.242;9.098;2023-04-23T01:50:19;14.00;99.90
16893;DHT22;8563;52.242;9.098;2023-04-23T01:52:55;14.00;99.90
16893;DHT22;8563;52.242;9.098;2023-04-23T01:55:28;13.90;99.90
16893;DHT22;8563;52.242;9.098;2023-04-23T01:58:00;13.90;99.90
16893;DHT22;8563;52.242;9.098;2023-04-23T02:00:32;13.90;99.90
16893;DHT22;8563;52.242;9.098;2023-04-23T02:03:05;13.90;99.90
16893;DHT22;8563;52.242;9.098;2023-04-23T02:05:40;13.90;99.90
16893;DHT22;8563;52.242;9.098;2023-04-23T02:08:13;13.80;99.90
16893;DHT22;8563;52.242;9.098;2023-04-23T02:10:46;13.80;99.90
16893;DHT22;8563;52.242;9.098;2023-04-23T02:13:18;13.70;99.90
16893;DHT22;8563;52.242;9.098;2023-04-23T02:15:50;13.60;99.90
16893;DHT22;8563;52.242;9.098;2023-04-23T02:18:23;13.60;99.90
16893;DHT22;8563;52.242;9.098;2023-04-23T02:20:55;13.60;99.90
16893;DHT22;8563;52.242;9.098;2023-04-23T02:23:30;13.50;99.90
16893;DHT22;8563;52.242;9.098;2023-04-23T02:26:03;13.50;99.90
16893;DHT22;8563;52.242;9.098;2023-04-23T02:28:35;13.50;99.90
16893;DHT22;8563;52.242;9.098;2023-04-23T02:31:07;13.50;99.90
16893;DHT22;8563;52.242;9.098;2023-04-23T02:33:43;13.50;99.90
16893;DHT22;8563;52.242;9.098;2023-04-23T02:36:16;13.50;99.90
16893;DHT22;8563;52.242;9.098;2023-04-23T02:38:50;13.50;99.90
16893;DHT22;8563;52.242;9.098;2023-04-23T02:41:22;13.50;99.90
16893;DHT22;8563;52.242;9.098;2023-04-23T02:43:54;13.50;99.90
16893;DHT22;8563;52.242;9.098;2023-04-23T02:46:26;13.50;99.90
16893;DHT22;8563;52.242;9.098;2023-04-23T02:48:59;13.50;99.90
16893;DHT22;8563;52.242;9.098;2023-04-23T02:51:31;13.50;99.90
16893;DHT22;8563;52.242;9.098;2023-04-23T02:54:05;13.50;99.90
16893;DHT22;8563;52.242;9.098;2023-04-23T02:56:37;13.50;99.90
16893;DHT22;8563;52.242;9.098;2023-04-23T02:59:09;13.50;99.90
16893;DHT22;8563;52.242;9.098;2023-04-23T03:01:42;13.50;99.90
16893;DHT22;8563;52.242;9.098;2023-04-23T03:04:15;13.50;99.90
16893;DHT22;8563;52.242;9.098;2023-04-23T03:06:48;13.40;99.90
16893;DHT22;8563;52.242;9.098;2023-04-23T03:09:22;13.40;99.90
16893;DHT22;8563;52.242;9.098;2023-04-23T03:11:54;13.30;99.90
16893;DHT22;8563;52.242;9.098;2023-04-23T03:14:27;13.20;99.90
16893;DHT22;8563;52.242;9.098;2023-04-23T03:16:59;13.20;99.90
16893;DHT22;8563;52.242;9.098;2023-04-23T03:19:34;13.10;99.90
16893;DHT22;8563;52.242;9.098;2023-04-23T03:22:07;13.10;99.90
16893;DHT22;8563;52.242;9.098;2023-04-23T03:24:42;13.10;99.90
16893;DHT22;8563;52.242;9.098;2023-04-23T03:27:14;13.10;99.90
16893;DHT22;8563;52.242;9.098;2023-04-23T03:29:47;13.10;99.90
16893;DHT22;8563;52.242;9.098;2023-04-23T03:32:19;13.10;99.90
16893;DHT22;8563;52.242;9.098;2023-04-23T03:34:51;13.00;99.90
16893;DHT22;8563;52.242;9.098;2023-04-23T03:37:26;12.90;99.90
16893;DHT22;8563;52.242;9.098;2023-04-23T03:40:00;12.90;99.90
16893;DHT22;8563;52.242;9.098;2023-04-23T03:42:37;12.80;99.90
16893;DHT22;8563;52.242;9.098;2023-04-23T03:45:10;12.80;99.90
16893;DHT22;8563;52.242;9.098;2023-04-23T03:47:43;12.80;99.90
16893;DHT22;8563;52.242;9.098;2023-04-23T03:50:15;12.90;99.90
16893;DHT22;8563;52.242;9.098;2023-04-23T03:52:52;12.90;99.90
16893;DHT22;8563;52.242;9.098;2023-04-23T03:55:46;12.90;99.90
16893;DHT22;8563;52.242;9.098;2023-04-23T03:58:19;12.80;99.90
16893;DHT22;8563;52.242;9.098;2023-04-23T04:00:51;12.80;99.90
16893;DHT22;8563;52.242;9.098;2023-04-23T04:03:24;12.80;99.90
16893;DHT22;8563;52.242;9.098;2023-04-23T04:05:56;12.80;99.90
16893;DHT22;8563;52.242;9.098;2023-04-23T04:08:31;12.80;99.90
16893;DHT22;8563;52.242;9.098;2023-04-23T04:11:05;12.80;99.90
16893;DHT22;8563;52.242;9.098;2023-04-23T04:13:38;12.80;99.90
16893;DHT22;8563;52.242;9.098;2023-04-23T04:16:10;12.80;99.90
16893;DHT22;8563;52.242;9.098;2023-04-23T04:18:43;12.80;99.90
16893;DHT22;8563;52.242;9.098;2023-04-23T04:21:15;12.80;99.90
16893;DHT22;8563;52.242;9.098;2023-04-23T04:23:48;12.80;99.90
16893;DHT22;8563;52.242;9.098;2023-04-23T04:26:22;12.80;99.90
16893;DHT22;8563;52.242;9.098;2023-04-23T04:28:55;12.80;99.90
16893;DHT22;8563;52.242;9.098;2023-04-23T04:31:28;12.80;99.90
16893;DHT22;8563;52.242;9.098;2023-04-23T04:34:00;12.70;99.90
16893;DHT22;8563;52.242;9.098;2023-04-23T04:36:33;12.70;99.90
16893;DHT22;8563;52.242;9.098;2023-04-23T04:39:05;12.60;99.90
16893;DHT22;8563;52.242;9.098;2023-04-23T04:41:39;12.60;99.90
16893;DHT22;8563;52.242;9.098;2023-04-23T04:44:12;12.60;99.90
16893;DHT22;8563;52.242;9.098;2023-04-23T04:46:46;12.60;99.90
16893;DHT22;8563;52.242;9.098;2023-04-23T04:49:18;12.70;99.90
16893;DHT22;8563;52.242;9.098;2023-04-23T04:51:51;12.70;99.90
16893;DHT22;8563;52.242;9.098;2023-04-23T04:54:24;12.80;99.90
16893;DHT22;8563;52.242;9.098;2023-04-23T04:56:58;12.70;99.90
16893;DHT22;8563;52.242;9.098;2023-04-23T04:59:30;12.70;99.90
16893;DHT22;8563;52.242;9.098;2023-04-23T05:02:02;12.70;99.90
16893;DHT22;8563;52.242;9.098;2023-04-23T05:04:35;12.70;99.90
16893;DHT22;8563;52.242;9.098;2023-04-23T05:07:07;12.70;99.90
16893;DHT22;8563;52.242;9.098;2023-04-23T05:09:39;12.80;99.90
16893;DHT22;8563;52.242;9.098;2023-04-23T05:12:13;12.80;99.90
16893;DHT22;8563;52.242;9.098;2023-04-23T05:14:45;12.80;99.90
16893;DHT22;8563;52.242;9.098;2023-04-23T05:17:17;12.80;99.90
16893;DHT22;8563;52.242;9.098;2023-04-23T05:19:50;12.90;99.90
16893;DHT22;8563;52.242;9.098;2023-04-23T05:22:22;12.90;99.90
16893;DHT22;8563;52.242;9.098;2023-04-23T05:24:54;12.90;99.90
16893;DHT22;8563;52.242;9.098;2023-04-23T05:27:28;12.90;99.90
16893;DHT22;8563;52.242;9.098;2023-04-23T05:30:01;12.80;99.90
16893;DHT22;8563;52.242;9.098;2023-04-23T05:32:33;12.90;99.90
16893;DHT22;8563;52.242;9.098;2023-04-23T05:35:06;12.90;99.90
16893;DHT22;8563;52.242;9.098;2023-04-23T05:37:39;13.00;99.90
16893;DHT22;8563;52.242;9.098;2023-04-23T05:40:11;13.00;99.90
16893;DHT22;8563;52.242;9.098;2023-04-23T05:42:44;13.00;99.90
16893;DHT22;8563;52.242;9.098;2023-04-23T05:45:17;12.90;99.90
16893;DHT22;8563;52.242;9.098;2023-04-23T05:47:49;12.90;99.90
16893;DHT22;8563;52.242;9.098;2023-04-23T05:50:21;12.90;99.90
16893;DHT22;8563;52.242;9.098;2023-04-23T05:52:53;12.90;99.90
16893;DHT22;8563;52.242;9.098;2023-04-23T05:55:25;12.90;99.90
16893;DHT22;8563;52.242;9.098;2023-04-23T05:57:59;13.10;99.90
16893;DHT22;8563;52.242;9.098;2023-04-23T06:00:32;13.10;99.90
16893;DHT22;8563;52.242;9.098;2023-04-23T06:03:05;13.30;99.90
16893;DHT22;8563;52.242;9.098;2023-04-23T06:05:37;13.40;99.90
16893;DHT22;8563;52.242;9.098;2023-04-23T06:08:12;13.40;99.90
16893;DHT22;8563;52.242;9.098;2023-04-23T06:10:44;13.50;99.90
16893;DHT22;8563;52.242;9.098;2023-04-23T06:13:18;13.40;99.90
16893;DHT22;8563;52.242;9.098;2023-04-23T06:15:51;13.50;99.90
16893;DHT22;8563;52.242;9.098;2023-04-23T06:18:23;13.50;99.90
16893;DHT22;8563;52.242;9.098;2023-04-23T06:20:55;13.40;99.90
16893;DHT22;8563;52.242;9.098;2023-04-23T06:23:27;13.40;99.90
16893;DHT22;8563;52.242;9.098;2023-04-23T06:25:59;13.40;99.90
16893;DHT22;8563;52.242;9.098;2023-04-23T06:28:35;13.40;99.90
16893;DHT22;8563;52.242;9.098;2023-04-23T06:31:27;13.60;99.90
16893;DHT22;8563;52.242;9.098;2023-04-23T06:34:00;13.80;99.90
16893;DHT22;8563;52.242;9.098;2023-04-23T06:36:33;14.20;99.90
16893;DHT22;8563;52.242;9.098;2023-04-23T06:39:05;14.70;99.90
16893;DHT22;8563;52.242;9.098;2023-04-23T06:41:37;15.20;99.90
16893;DHT22;8563;52.242;9.098;2023-04-23T06:44:24;15.10;99.90
16893;DHT22;8563;52.242;9.098;2023-04-23T06:46:56;15.20;99.90
16893;DHT22;8563;52.242;9.098;2023-04-23T06:49:29;15.20;99.90
16893;DHT22;8563;52.242;9.098;2023-04-23T06:52:01;15.20;99.90
16893;DHT22;8563;52.242;9.098;2023-04-23T06:54:33;15.20;99.90
16893;DHT22;8563;52.242;9.098;2023-04-23T06:57:05;15.40;99.90
16893;DHT22;8563;52.242;9.098;2023-04-23T06:59:39;15.40;99.90
16893;DHT22;8563;52.242;9.098;2023-04-23T07:02:11;15.40;99.90
16893;DHT22;8563;52.242;9.098;2023-04-23T07:04:43;15.30;99.90
16893;DHT22;8563;52.242;9.098;2023-04-23T07:07:16;15.30;99.90
16893;DHT22;8563;52.242;9.098;2023-04-23T07:09:48;15.30;99.90
16893;DHT22;8563;52.242;9.098;2023-04-23T07:12:20;15.30;99.90
16893;DHT22;8563;52.242;9.098;2023-04-23T07:14:54;15.50;99.90
16893;DHT22;8563;52.242;9.098;2023-04-23T07:17:26;15.80;99.90
16893;DHT22;8563;52.242;9.098;2023-04-23T07:19:58;16.00;99.90
16893;DHT22;8563;52.242;9.098;2023-04-23T07:22:30;16.10;99.90
16893;DHT22;8563;52.242;9.098;2023-04-23T07:25:03;16.10;99.90
16893;DHT22;8563;52.242;9.098;2023-04-23T07:27:35;16.00;99.90
16893;DHT22;8563;52.242;9.098;2023-04-23T07:30:10;15.80;99.90
16893;DHT22;8563;52.242;9.098;2023-04-23T07:32:43;15.70;99.90
16893;DHT22;8563;52.242;9.098;2023-04-23T07:35:15;15.70;99.90
16893;DHT22;8563;52.242;9.098;2023-04-23T07:37:48;16.00;99.90
16893;DHT22;8563;52.242;9.098;2023-04-23T07:40:24;16.20;99.90
16893;DHT22;8563;52.242;9.098;2023-04-23T07:42:56;16.40;99.90
16893;DHT22;8563;52.242;9.098;2023-04-23T07:45:30;16.50;99.90
16893;DHT22;8563;52.242;9.098;2023-04-23T07:48:02;16.60;99.90
16893;DHT22;8563;52.242;9.098;2023-04-23T07:50:35;16.60;99.90
16893;DHT22;8563;52.242;9.098;2023-04-23T07:53:07;16.50;99.90
16893;DHT22;8563;52.242;9.098;2023-04-23T07:55:39;16.60;99.90
16893;DHT22;8563;52.242;9.098;2023-04-23T07:58:12;16.50;99.90
16893;DHT22;8563;52.242;9.098;2023-04-23T08:00:45;16.50;99.90
16893;DHT22;8563;52.242;9.098;2023-04-23T08:03:18;16.40;99.90
16893;DHT22;8563;52.242;9.098;2023-04-23T08:05:50;16.40;99.90
16893;DHT22;8563;52.242;9.098;2023-04-23T08:08:22;16.20;99.90
16893;DHT22;8563;52.242;9.098;2023-04-23T08:10:55;16.00;99.90
16893;DHT22;8563;52.242;9.098;2023-04-23T08:13:27;16.00;99.90
16893;DHT22;8563;52.242;9.098;2023-04-23T08:16:01;16.10;99.90
16893;DHT22;8563;52.242;9.098;2023-04-23T08:18:33;16.20;99.90
16893;DHT22;8563;52.242;9.098;2023-04-23T08:21:06;16.20;99.90
16893;DHT22;8563;52.242;9.098;2023-04-23T08:23:39;16.20;99.90
16893;DHT22;8563;52.242;9.098;2023-04-23T08:26:11;16.30;99.90
16893;DHT22;8563;52.242;9.098;2023-04-23T08:28:45;16.30;99.90
16893;DHT22;8563;52.242;9.098;2023-04-23T08:31:19;16.20;99.90
16893;DHT22;8563;52.242;9.098;2023-04-23T08:33:51;16.20;99.60
16893;DHT22;8563;52.242;9.098;2023-04-23T08:36:24;16.20;99.10
16893;DHT22;8563;52.242;9.098;2023-04-23T08:38:57;16.20;99.40
16893;DHT22;8563;52.242;9.098;2023-04-23T08:41:34;16.20;99.90
16893;DHT22;8563;52.242;9.098;2023-04-23T08:44:12;16.40;99.40
16893;DHT22;8563;52.242;9.098;2023-04-23T08:46:49;16.50;99.20
16893;DHT22;8563;52.242;9.098;2023-04-23T08:49:25;16.60;99.90
16893;DHT22;8563;52.242;9.098;2023-04-23T08:52:04;16.60;98.70
16893;DHT22;8563;52.242;9.098;2023-04-23T08:54:45;16.70;98.80
16893;DHT22;8563;52.242;9.098;2023-04-23T08:57:17;16.80;98.80
16893;DHT22;8563;52.242;9.098;2023-04-23T08:59:50;17.00;97.60
16893;DHT22;8563;52.242;9.098;2023-04-23T09:02:24;17.10;97.10
16893;DHT22;8563;52.242;9.098;2023-04-23T09:04:57;17.20;97.80
16893;DHT22;8563;52.242;9.098;2023-04-23T09:07:29;17.30;97.80
16893;DHT22;8563;52.242;9.098;2023-04-23T09:10:02;17.40;96.60
16893;DHT22;8563;52.242;9.098;2023-04-23T09:12:35;17.40;95.60
16893;DHT22;8563;52.242;9.098;2023-04-23T09:15:08;17.50;95.40
16893;DHT22;8563;52.242;9.098;2023-04-23T09:17:45;17.60;95.50
16893;DHT22;8563;52.242;9.098;2023-04-23T09:20:17;17.60;94.70
16893;DHT22;8563;52.242;9.098;2023-04-23T09:22:50;17.70;94.80
16893;DHT22;8563;52.242;9.098;2023-04-23T09:25:23;17.80;95.40
16893;DHT22;8563;52.242;9.098;2023-04-23T09:27:57;18.00;94.30
16893;DHT22;8563;52.242;9.098;2023-04-23T09:30:31;17.90;92.30
16893;DHT22;8563;52.242;9.098;2023-04-23T09:33:04;17.90;91.90
16893;DHT22;8563;52.242;9.098;2023-04-23T09:35:36;17.90;93.00
16893;DHT22;8563;52.242;9.098;2023-04-23T09:38:09;18.00;92.50
16893;DHT22;8563;52.242;9.098;2023-04-23T09:40:41;18.10;92.60
16893;DHT22;8563;52.242;9.098;2023-04-23T09:43:14;18.10;92.50
16893;DHT22;8563;52.242;9.098;2023-04-23T09:45:49;18.10;92.50
16893;DHT22;8563;52.242;9.098;2023-04-23T09:48:23;18.30;92.80
16893;DHT22;8563;52.242;9.098;2023-04-23T09:50:55;18.20;92.30
16893;DHT22;8563;52.242;9.098;2023-04-23T09:53:27;18.20;92.00
16893;DHT22;8563;52.242;9.098;2023-04-23T09:56:00;18.30;92.10
16893;DHT22;8563;52.242;9.098;2023-04-23T09:58:32;18.50;91.20
16893;DHT22;8563;52.242;9.098;2023-04-23T10:01:08;18.60;91.10
16893;DHT22;8563;52.242;9.098;2023-04-23T10:03:43;18.70;90.40
16893;DHT22;8563;52.242;9.098;2023-04-23T10:06:16;18.90;90.80
16893;DHT22;8563;52.242;9.098;2023-04-23T10:08:48;19.10;90.40
16893;DHT22;8563;52.242;9.098;2023-04-23T10:11:21;19.10;90.60
16893;DHT22;8563;52.242;9.098;2023-04-23T10:13:54;19.10;88.10
16893;DHT22;8563;52.242;9.098;2023-04-23T10:16:27;19.00;87.90
16893;DHT22;8563;52.242;9.098;2023-04-23T10:19:02;18.90;87.30
16893;DHT22;8563;52.242;9.098;2023-04-23T10:21:35;19.00;90.00
16893;DHT22;8563;52.242;9.098;2023-04-23T10:24:09;18.90;88.90
16893;DHT22;8563;52.242;9.098;2023-04-23T10:26:41;18.90;88.40
16893;DHT22;8563;52.242;9.098;2023-04-23T10:29:14;19.00;87.20
16893;DHT22;8563;52.242;9.098;2023-04-23T10:31:49;19.20;86.80
16893;DHT22;8563;52.242;9.098;2023-04-23T10:34:24;19.50;87.30
16893;DHT22;8563;52.242;9.098;2023-04-23T10:36:58;19.60;87.30
16893;DHT22;8563;52.242;9.098;2023-04-23T10:39:32;19.40;87.50
16893;DHT22;8563;52.242;9.098;2023-04-23T10:42:05;19.30;88.90
16893;DHT22;8563;52.242;9.098;2023-04-23T10:44:38;19.20;87.50
16893;DHT22;8563;52.242;9.098;2023-04-23T10:47:13;19.10;88.10
16893;DHT22;8563;52.242;9.098;2023-04-23T10:49:47;19.10;89.20
16893;DHT22;8563;52.242;9.098;2023-04-23T10:52:19;19.40;88.20
16893;DHT22;8563;52.242;9.098;2023-04-23T10:54:56;19.60;87.80
16893;DHT22;8563;52.242;9.098;2023-04-23T10:57:29;19.80;85.40
16893;DHT22;8563;52.242;9.098;2023-04-23T11:00:01;19.80;86.60
16893;DHT22;8563;52.242;9.098;2023-04-23T11:02:42;20.00;85.80
16893;DHT22;8563;52.242;9.098;2023-04-23T11:05:16;20.00;86.10
16893;DHT22;8563;52.242;9.098;2023-04-23T11:08:02;20.00;86.70
16893;DHT22;8563;52.242;9.098;2023-04-23T11:10:50;20.20;87.10
16893;DHT22;8563;52.242;9.098;2023-04-23T11:13:26;20.40;86.40
16893;DHT22;8563;52.242;9.098;2023-04-23T11:16:15;20.40;85.20
16893;DHT22;8563;52.242;9.098;2023-04-23T11:18:58;20.40;84.90
16893;DHT22;8563;52.242;9.098;2023-04-23T11:21:56;20.10;86.10
16893;DHT22;8563;52.242;9.098;2023-04-23T11:24:29;19.70;84.90
16893;DHT22;8563;52.242;9.098;2023-04-23T11:27:05;19.40;87.00
16893;DHT22;8563;52.242;9.098;2023-04-23T11:29:38;19.10;86.90
16893;DHT22;8563;52.242;9.098;2023-04-23T11:32:12;19.10;88.20
16893;DHT22;8563;52.242;9.098;2023-04-23T11:34:46;19.20;88.80
16893;DHT22;8563;52.242;9.098;2023-04-23T11:37:21;19.40;87.60
16893;DHT22;8563;52.242;9.098;2023-04-23T11:39:54;19.50;87.30
16893;DHT22;8563;52.242;9.098;2023-04-23T11:42:26;19.50;88.20
16893;DHT22;8563;52.242;9.098;2023-04-23T11:44:59;20.00;86.70
16893;DHT22;8563;52.242;9.098;2023-04-23T11:47:31;20.40;85.30
16893;DHT22;8563;52.242;9.098;2023-04-23T11:50:04;20.60;85.70
16893;DHT22;8563;52.242;9.098;2023-04-23T11:52:38;20.60;85.00
16893;DHT22;8563;52.242;9.098;2023-04-23T11:55:11;20.50;84.20
16893;DHT22;8563;52.242;9.098;2023-04-23T11:57:45;20.50;83.00
16893;DHT22;8563;52.242;9.098;2023-04-23T12:00:20;20.30;84.60
16893;DHT22;8563;52.242;9.098;2023-04-23T12:02:54;20.00;83.90
16893;DHT22;8563;52.242;9.098;2023-04-23T12:05:28;19.90;84.20
16893;DHT22;8563;52.242;9.098;2023-04-23T12:08:09;20.00;84.10
16893;DHT22;8563;52.242;9.098;2023-04-23T12:10:44;20.00;84.30
16893;DHT22;8563;52.242;9.098;2023-04-23T12:13:19;19.80;85.60
16893;DHT22;8563;52.242;9.098;2023-04-23T12:15:53;19.60;86.60
16893;DHT22;8563;52.242;9.098;2023-04-23T12:18:27;19.40;89.80
16893;DHT22;8563;52.242;9.098;2023-04-23T12:21:04;19.50;89.20
16893;DHT22;8563;52.242;9.098;2023-04-23T12:23:39;19.90;88.60
16893;DHT22;8563;52.242;9.098;2023-04-23T12:26:14;20.40;86.10
16893;DHT22;8563;52.242;9.098;2023-04-23T12:28:46;20.70;84.00
16893;DHT22;8563;52.242;9.098;2023-04-23T12:31:21;20.80;82.50
16893;DHT22;8563;52.242;9.098;2023-04-23T12:33:57;20.50;82.40
16893;DHT22;8563;52.242;9.098;2023-04-23T12:36:35;20.20;79.70
16893;DHT22;8563;52.242;9.098;2023-04-23T12:39:26;20.00;76.90
16893;DHT22;8563;52.242;9.098;2023-04-23T12:42:01;20.10;77.80
16893;DHT22;8563;52.242;9.098;2023-04-23T12:44:36;20.10;78.00
16893;DHT22;8563;52.242;9.098;2023-04-23T12:47:09;20.10;78.60
16893;DHT22;8563;52.242;9.098;2023-04-23T12:49:41;19.90;79.00
16893;DHT22;8563;52.242;9.098;2023-04-23T12:52:14;19.80;77.70
16893;DHT22;8563;52.242;9.098;2023-04-23T12:54:48;19.90;76.70
16893;DHT22;8563;52.242;9.098;2023-04-23T12:57:22;20.20;75.40
16893;DHT22;8563;52.242;9.098;2023-04-23T12:59:55;20.20;72.70
16893;DHT22;8563;52.242;9.098;2023-04-23T13:02:27;20.20;72.80
16893;DHT22;8563;52.242;9.098;2023-04-23T13:04:59;20.30;72.30
16893;DHT22;8563;52.242;9.098;2023-04-23T13:07:32;20.50;73.30
16893;DHT22;8563;52.242;9.098;2023-04-23T13:10:07;20.40;74.10
16893;DHT22;8563;52.242;9.098;2023-04-23T13:12:39;20.30;74.50
16893;DHT22;8563;52.242;9.098;2023-04-23T13:15:11;20.20;75.20
16893;DHT22;8563;52.242;9.098;2023-04-23T13:17:44;20.00;74.40
16893;DHT22;8563;52.242;9.098;2023-04-23T13:20:16;20.20;75.40
16893;DHT22;8563;52.242;9.098;2023-04-23T13:22:48;20.20;75.30
16893;DHT22;8563;52.242;9.098;2023-04-23T13:25:22;20.50;75.90
16893;DHT22;8563;52.242;9.098;2023-04-23T13:27:54;20.40;73.50
16893;DHT22;8563;52.242;9.098;2023-04-23T13:30:26;20.10;74.80
16893;DHT22;8563;52.242;9.098;2023-04-23T13:32:58;19.90;74.90
16893;DHT22;8563;52.242;9.098;2023-04-23T13:35:31;19.90;75.60
16893;DHT22;8563;52.242;9.098;2023-04-23T13:38:07;20.10;75.70
16893;DHT22;8563;52.242;9.098;2023-04-23T13:40:40;20.00;76.20
16893;DHT22;8563;52.242;9.098;2023-04-23T13:43:13;19.70;80.50
16893;DHT22;8563;52.242;9.098;2023-04-23T13:45:46;19.60;76.60
16893;DHT22;8563;52.242;9.098;2023-04-23T13:48:19;19.70;78.00
16893;DHT22;8563;52.242;9.098;2023-04-23T13:50:51;19.70;76.80
16893;DHT22;8563;52.242;9.098;2023-04-23T13:53:24;19.80;77.30
16893;DHT22;8563;52.242;9.098;2023-04-23T13:55:58;20.10;77.90
16893;DHT22;8563;52.242;9.098;2023-04-23T13:58:30;19.90;80.00
16893;DHT22;8563;52.242;9.098;2023-04-23T14:01:03;19.70;80.60
16893;DHT22;8563;52.242;9.098;2023-04-23T14:03:35;19.50;80.60
16893;DHT22;8563;52.242;9.098;2023-04-23T14:06:08;19.50;80.50
16893;DHT22;8563;52.242;9.098;2023-04-23T14:08:40;19.30;82.10
16893;DHT22;8563;52.242;9.098;2023-04-23T14:11:14;19.30;83.10
16893;DHT22;8563;52.242;9.098;2023-04-23T14:13:46;19.30;83.80
16893;DHT22;8563;52.242;9.098;2023-04-23T14:16:18;19.40;84.00
16893;DHT22;8563;52.242;9.098;2023-04-23T14:18:51;19.50;83.80
16893;DHT22;8563;52.242;9.098;2023-04-23T14:21:23;19.60;85.50
16893;DHT22;8563;52.242;9.098;2023-04-23T14:23:59;19.70;83.70
16893;DHT22;8563;52.242;9.098;2023-04-23T14:26:34;19.90;84.90
16893;DHT22;8563;52.242;9.098;2023-04-23T14:29:09;19.80;81.90
16893;DHT22;8563;52.242;9.098;2023-04-23T14:31:42;19.90;82.70
16893;DHT22;8563;52.242;9.098;2023-04-23T14:34:14;19.80;83.30
16893;DHT22;8563;52.242;9.098;2023-04-23T14:36:46;19.80;83.30
16893;DHT22;8563;52.242;9.098;2023-04-23T14:39:20;19.80;83.60
16893;DHT22;8563;52.242;9.098;2023-04-23T14:41:54;19.70;82.60
16893;DHT22;8563;52.242;9.098;2023-04-23T14:44:26;19.80;84.20
16893;DHT22;8563;52.242;9.098;2023-04-23T14:46:58;20.00;81.50
16893;DHT22;8563;52.242;9.098;2023-04-23T14:49:30;20.20;79.50
16893;DHT22;8563;52.242;9.098;2023-04-23T14:52:02;20.20;79.20
16893;DHT22;8563;52.242;9.098;2023-04-23T14:54:34;20.10;80.10
16893;DHT22;8563;52.242;9.098;2023-04-23T14:57:08;19.90;79.40
16893;DHT22;8563;52.242;9.098;2023-04-23T14:59:40;19.80;80.00
16893;DHT22;8563;52.242;9.098;2023-04-23T15:02:13;19.60;80.80
16893;DHT22;8563;52.242;9.098;2023-04-23T15:04:45;19.50;81.10
16893;DHT22;8563;52.242;9.098;2023-04-23T15:07:18;19.30;81.50
16893;DHT22;8563;52.242;9.098;2023-04-23T15:09:50;19.10;83.10
16893;DHT22;8563;52.242;9.098;2023-04-23T15:12:54;19.10;84.60
16893;DHT22;8563;52.242;9.098;2023-04-23T15:15:42;19.20;84.30
16893;DHT22;8563;52.242;9.098;2023-04-23T15:18:15;19.20;85.60
16893;DHT22;8563;52.242;9.098;2023-04-23T15:20:47;19.20;85.60
16893;DHT22;8563;52.242;9.098;2023-04-23T15:23:20;19.20;86.80
16893;DHT22;8563;52.242;9.098;2023-04-23T15:25:53;19.00;87.20
16893;DHT22;8563;52.242;9.098;2023-04-23T15:28:27;19.00;88.90
16893;DHT22;8563;52.242;9.098;2023-04-23T15:30:59;18.90;86.90
16893;DHT22;8563;52.242;9.098;2023-04-23T15:33:31;18.90;87.30
16893;DHT22;8563;52.242;9.098;2023-04-23T15:36:04;18.90;87.10
16893;DHT22;8563;52.242;9.098;2023-04-23T15:38:36;18.80;87.70
16893;DHT22;8563;52.242;9.098;2023-04-23T15:41:09;18.70;88.20
16893;DHT22;8563;52.242;9.098;2023-04-23T15:43:43;18.60;88.80
16893;DHT22;8563;52.242;9.098;2023-04-23T15:46:17;18.50;89.00
16893;DHT22;8563;52.242;9.098;2023-04-23T15:48:49;18.50;90.20
16893;DHT22;8563;52.242;9.098;2023-04-23T15:51:21;18.50;89.10
16893;DHT22;8563;52.242;9.098;2023-04-23T15:53:53;18.50;89.60
16893;DHT22;8563;52.242;9.098;2023-04-23T15:56:25;18.40;89.60
16893;DHT22;8563;52.242;9.098;2023-04-23T15:58:59;18.30;90.60
16893;DHT22;8563;52.242;9.098;2023-04-23T16:01:31;18.20;91.50
16893;DHT22;8563;52.242;9.098;2023-04-23T16:04:04;18.10;91.20
16893;DHT22;8563;52.242;9.098;2023-04-23T16:06:37;18.10;91.60
16893;DHT22;8563;52.242;9.098;2023-04-23T16:09:09;18.00;92.10
16893;DHT22;8563;52.242;9.098;2023-04-23T16:11:41;18.00;90.70
16893;DHT22;8563;52.242;9.098;2023-04-23T16:14:15;18.00;90.90
16893;DHT22;8563;52.242;9.098;2023-04-23T16:16:47;18.00;91.30
16893;DHT22;8563;52.242;9.098;2023-04-23T16:19:19;17.90;91.30
16893;DHT22;8563;52.242;9.098;2023-04-23T16:21:51;17.80;91.50
16893;DHT22;8563;52.242;9.098;2023-04-23T16:24:24;17.70;91.70